Terminal Aerodrome Forecast
Issued by NWS

Home | Current Version | Previous Version | Graphics & Text | Print | Product List | Glossary On
Versions: 1 2 3 4 5 6 7 8 9 10 11 12 13 14 15 16 17 18 19 20 21 22 23 24 25
000
FTUS43 KBIS 230100 AAA
TAFDIK
TAF AMD
KDIK 230143Z 2302/2324 05012KT P6SM VCTS BKN011 OVC016CB
     FM230500 07011KT 5SM SHRA BR VCTS OVC015CB
     FM231200 07012KT 2SM SHRA BR VCTS OVC008CB=

USA.gov is the U.S. government's official web portal to all federal, state and local government web resources and services.